createdAt,value
2022-12-08T00:01:49.053Z,9.97
2022-12-08T00:05:09.474Z,10.27
2022-12-08T00:08:29.778Z,10.05
2022-12-08T00:11:31.356Z,9.90
2022-12-08T00:14:40.474Z,9.60
2022-12-08T00:17:42.047Z,9.73
2022-12-08T00:20:46.299Z,10.38
2022-12-08T00:23:47.866Z,9.45
2022-12-08T00:26:49.504Z,9.73
2022-12-08T00:29:51.075Z,9.57
2022-12-08T00:32:52.700Z,9.07
2022-12-08T00:35:54.392Z,10.00
2022-12-08T00:38:59.656Z,9.90
2022-12-08T00:42:13.106Z,9.73
2022-12-08T00:45:14.885Z,9.80
2022-12-08T00:48:16.465Z,10.50
2022-12-08T00:51:18.037Z,9.88
2022-12-08T00:54:19.677Z,10.05
2022-12-08T00:57:21.258Z,10.55
2022-12-08T01:00:22.811Z,9.20
2022-12-08T01:03:28.526Z,9.82
2022-12-08T01:06:30.149Z,9.30
2022-12-08T01:09:31.789Z,9.10
2022-12-08T01:12:33.381Z,9.57
2022-12-08T01:15:34.983Z,9.35
2022-12-08T01:18:37.048Z,10.27
2022-12-08T01:21:41.738Z,8.77
2022-12-08T01:24:43.332Z,9.88
2022-12-08T01:27:44.890Z,9.45
2022-12-08T01:30:46.540Z,8.77
2022-12-08T01:33:48.724Z,8.98
2022-12-08T01:36:50.315Z,9.13
2022-12-08T01:39:51.941Z,9.27
2022-12-08T01:42:53.523Z,9.32
2022-12-08T01:45:55.194Z,9.07
2022-12-08T01:49:04.777Z,9.48
2022-12-08T01:52:23.696Z,10.10
2022-12-08T01:55:29.073Z,9.07
2022-12-08T01:58:32.835Z,9.27
2022-12-08T02:01:34.443Z,8.88
2022-12-08T02:04:40.079Z,9.87
2022-12-08T02:07:41.654Z,9.25
2022-12-08T02:10:43.613Z,9.55
2022-12-08T02:13:45.396Z,9.35
2022-12-08T02:17:03.587Z,9.90
2022-12-08T02:20:13.238Z,9.13
2022-12-08T02:23:17.569Z,10.07
2022-12-08T02:26:31.121Z,10.67
2022-12-08T02:29:47.724Z,10.02
2022-12-08T02:33:01.383Z,10.23
2022-12-08T02:36:20.150Z,10.45
2022-12-08T02:39:21.739Z,10.10
2022-12-08T02:42:28.093Z,10.35
2022-12-08T02:45:43.707Z,10.70
2022-12-08T02:48:45.372Z,11.20
2022-12-08T02:51:46.926Z,10.68
2022-12-08T02:54:56.089Z,10.82
2022-12-08T02:58:18.857Z,10.68
2022-12-08T03:01:35.792Z,11.03
2022-12-08T03:04:58.922Z,9.98
2022-12-08T03:08:12.971Z,11.25
2022-12-08T03:11:33.206Z,11.20
2022-12-08T03:14:34.898Z,11.57
2022-12-08T03:17:36.527Z,10.77
2022-12-08T03:20:38.113Z,11.75
2022-12-08T03:23:39.794Z,11.23
2022-12-08T03:26:52.312Z,10.47
2022-12-08T03:29:55.324Z,12.40
2022-12-08T03:33:22.618Z,12.43
2022-12-08T03:36:24.181Z,10.50
2022-12-08T03:39:25.913Z,10.23
2022-12-08T03:42:27.466Z,11.27
2022-12-08T03:45:29.160Z,12.55
2022-12-08T03:48:30.823Z,13.18
2022-12-08T03:51:35.520Z,13.68
2022-12-08T03:54:37.105Z,13.25
2022-12-08T03:57:38.701Z,13.68
2022-12-08T04:00:40.278Z,15.20
2022-12-08T04:03:41.885Z,13.27
2022-12-08T04:06:43.532Z,14.95
2022-12-08T04:09:48.787Z,14.65
2022-12-08T04:12:50.423Z,14.67
2022-12-08T04:15:52.365Z,14.32
2022-12-08T04:18:54.296Z,14.25
2022-12-08T04:22:00.051Z,13.98
2022-12-08T04:25:01.834Z,14.63
2022-12-08T04:28:03.846Z,15.38
2022-12-08T04:31:05.704Z,15.70
2022-12-08T04:34:07.355Z,17.67
2022-12-08T04:37:08.909Z,16.63
2022-12-08T04:40:11.959Z,17.52
2022-12-08T04:43:13.665Z,16.58
2022-12-08T04:46:15.317Z,16.30
2022-12-08T04:49:16.936Z,16.75
2022-12-08T04:52:21.856Z,17.38
2022-12-08T04:55:23.435Z,17.25
2022-12-08T04:58:29.274Z,17.70
2022-12-08T05:01:30.902Z,18.27
2022-12-08T05:04:32.601Z,17.50
2022-12-08T05:07:34.299Z,16.60
2022-12-08T05:10:38.740Z,17.08
2022-12-08T05:13:40.321Z,18.95
2022-12-08T05:16:42.345Z,18.30
2022-12-08T05:19:43.971Z,17.27
2022-12-08T05:22:49.973Z,16.67
2022-12-08T05:25:51.636Z,18.60
2022-12-08T05:28:53.198Z,18.90
2022-12-08T05:31:54.800Z,17.90
2022-12-08T05:34:56.512Z,19.65
2022-12-08T05:37:58.079Z,17.83
2022-12-08T05:41:04.229Z,18.43
2022-12-08T05:44:05.886Z,18.67
2022-12-08T05:47:07.583Z,19.17
2022-12-08T05:50:09.310Z,19.08
2022-12-08T05:53:13.607Z,17.17
2022-12-08T05:56:15.305Z,18.73
2022-12-08T05:59:16.906Z,18.10
2022-12-08T06:02:18.673Z,18.53
2022-12-08T06:05:20.556Z,17.58
2022-12-08T06:08:22.169Z,16.60
2022-12-08T06:11:28.554Z,16.45
2022-12-08T06:14:30.105Z,15.48
2022-12-08T06:17:31.699Z,15.07
2022-12-08T06:20:33.402Z,13.80
2022-12-08T06:23:35.010Z,13.73
2022-12-08T06:26:36.813Z,13.00
2022-12-08T06:29:38.520Z,12.55
2022-12-08T06:32:40.151Z,12.93
2022-12-08T06:35:41.741Z,12.52
2022-12-08T06:38:44.141Z,11.60
2022-12-08T06:42:04.342Z,11.20
2022-12-08T06:45:06.510Z,11.23
2022-12-08T06:48:08.096Z,11.13
2022-12-08T06:51:10.990Z,11.35
2022-12-08T06:54:17.051Z,11.13
2022-12-08T06:57:18.740Z,10.68
2022-12-08T07:00:20.781Z,11.23
2022-12-08T07:03:22.386Z,10.63
2022-12-08T07:06:24.683Z,10.97
2022-12-08T07:09:30.330Z,11.95
2022-12-08T07:12:32.245Z,10.70
2022-12-08T07:15:33.902Z,10.97
2022-12-08T07:18:35.842Z,10.00
2022-12-08T07:21:37.559Z,10.10
2022-12-08T07:24:39.135Z,10.02
2022-12-08T07:27:40.747Z,10.18
2022-12-08T07:30:42.368Z,10.60
2022-12-08T07:33:44.027Z,10.93
2022-12-08T07:36:45.613Z,11.73
2022-12-08T07:39:47.392Z,10.68
2022-12-08T07:42:49.156Z,11.82
2022-12-08T07:45:51.143Z,10.75
2022-12-08T07:48:55.251Z,10.37
2022-12-08T07:51:56.929Z,10.48
2022-12-08T07:54:58.522Z,10.15
2022-12-08T07:58:00.442Z,11.55
2022-12-08T08:01:02.291Z,9.38
2022-12-08T08:04:05.323Z,9.20
2022-12-08T08:07:06.975Z,10.45
2022-12-08T08:10:09.311Z,11.10
2022-12-08T08:13:10.891Z,9.73
2022-12-08T08:16:13.773Z,10.10
2022-12-08T08:19:15.423Z,9.82
2022-12-08T08:22:17.012Z,10.73
2022-12-08T08:25:19.630Z,11.55
2022-12-08T08:28:21.354Z,10.98
2022-12-08T08:31:27.103Z,11.35
2022-12-08T08:34:28.864Z,11.30
2022-12-08T08:37:30.646Z,11.20
2022-12-08T08:40:32.236Z,10.80
2022-12-08T08:43:38.383Z,10.70
2022-12-08T08:46:40.909Z,11.35
2022-12-08T08:49:42.689Z,10.15
2022-12-08T08:52:44.290Z,10.70
2022-12-08T08:55:45.932Z,9.88
2022-12-08T08:58:48.950Z,9.70
2022-12-08T09:01:50.690Z,10.40
2022-12-08T09:04:52.534Z,10.63
2022-12-08T09:07:54.385Z,10.55
2022-12-08T09:10:56.190Z,11.30
2022-12-08T09:13:57.816Z,9.30
2022-12-08T09:16:59.405Z,10.63
2022-12-08T09:20:01.453Z,10.88
2022-12-08T09:23:03.220Z,10.48
2022-12-08T09:26:05.250Z,10.17
2022-12-08T09:29:06.880Z,10.65
2022-12-08T09:32:08.603Z,10.02
2022-12-08T09:35:10.313Z,10.85
2022-12-08T09:38:11.917Z,10.90
2022-12-08T09:41:43.307Z,8.63
2022-12-08T09:44:55.297Z,10.48
2022-12-08T09:48:12.342Z,10.90
2022-12-08T09:51:14.506Z,10.13
2022-12-08T09:54:21.334Z,9.68
2022-12-08T09:57:22.979Z,11.93
2022-12-08T10:00:28.385Z,10.65
2022-12-08T10:03:30.202Z,10.50
2022-12-08T10:07:06.301Z,10.52
2022-12-08T10:10:27.867Z,10.98
2022-12-08T10:13:35.296Z,10.03
2022-12-08T10:16:40.432Z,9.70
2022-12-08T10:19:42.541Z,9.55
2022-12-08T10:22:45.067Z,10.30
2022-12-08T10:25:48.852Z,10.60
2022-12-08T10:28:50.509Z,10.15
2022-12-08T10:31:52.172Z,10.55
2022-12-08T10:35:03.891Z,10.73
2022-12-08T10:38:06.578Z,10.23
2022-12-08T10:41:11.198Z,10.30
2022-12-08T10:44:13.167Z,9.77
2022-12-08T10:47:14.844Z,10.27
2022-12-08T10:50:33.309Z,10.03
2022-12-08T10:53:35.029Z,9.75
2022-12-08T10:56:36.695Z,10.60
2022-12-08T10:59:41.882Z,9.35
2022-12-08T11:03:19.996Z,10.20
2022-12-08T11:06:25.851Z,8.98
2022-12-08T11:09:36.421Z,9.35
2022-12-08T11:12:37.998Z,9.30
2022-12-08T11:15:39.836Z,9.85
2022-12-08T11:18:43.548Z,9.20
2022-12-08T11:21:45.275Z,9.30
2022-12-08T11:24:46.828Z,9.45
2022-12-08T11:27:53.226Z,8.88
2022-12-08T11:31:06.393Z,9.73
2022-12-08T11:34:10.030Z,9.07
2022-12-08T11:37:37.819Z,9.43
2022-12-08T11:40:40.671Z,9.07
2022-12-08T11:44:05.870Z,9.20
2022-12-08T11:47:25.562Z,9.43
2022-12-08T11:50:50.777Z,9.15
2022-12-08T11:53:52.492Z,8.52
2022-12-08T11:56:57.937Z,8.52
2022-12-08T11:59:59.664Z,8.27
2022-12-08T12:03:06.372Z,8.95
2022-12-08T12:10:19.023Z,8.75
2022-12-08T12:13:26.409Z,8.70
2022-12-08T12:16:42.652Z,9.07
2022-12-08T12:19:44.273Z,9.20
2022-12-08T12:22:48.766Z,8.68
2022-12-08T12:25:56.745Z,8.47
2022-12-08T12:29:13.726Z,8.35
2022-12-08T12:32:15.305Z,7.95
2022-12-08T12:35:26.809Z,8.73
2022-12-08T12:38:57.698Z,7.90
2022-12-08T12:42:03.661Z,8.88
2022-12-08T12:45:19.332Z,9.20
2022-12-08T12:48:23.625Z,8.55
2022-12-08T12:51:47.166Z,9.40
2022-12-08T12:54:51.807Z,9.33
2022-12-08T12:57:55.221Z,9.70
2022-12-08T13:01:12.056Z,8.63
2022-12-08T13:04:13.896Z,9.82
2022-12-08T13:07:31.515Z,9.23
2022-12-08T13:10:34.744Z,7.82
2022-12-08T13:13:37.423Z,9.45
2022-12-08T13:16:39.175Z,8.95
2022-12-08T13:19:41.193Z,9.27
2022-12-08T13:23:27.482Z,8.85
2022-12-08T13:26:29.131Z,8.23
2022-12-08T13:29:31.545Z,8.60
2022-12-08T13:33:17.410Z,8.73
2022-12-08T13:36:21.547Z,7.53
2022-12-08T13:39:26.766Z,8.10
2022-12-08T13:42:43.186Z,8.48
2022-12-08T13:50:49.587Z,8.35
2022-12-08T13:59:34.517Z,8.80
2022-12-08T14:02:57.192Z,8.55
2022-12-08T14:06:14.601Z,8.57
2022-12-08T14:09:21.855Z,9.80
2022-12-08T14:12:29.932Z,9.50
2022-12-08T14:15:38.268Z,9.40
2022-12-08T14:18:40.190Z,9.20
2022-12-08T14:21:42.007Z,9.75
2022-12-08T14:25:01.994Z,9.23
2022-12-08T14:28:04.188Z,9.23
2022-12-08T14:31:06.398Z,8.60
2022-12-08T14:34:10.872Z,9.18
2022-12-08T14:37:12.621Z,8.97
2022-12-08T14:40:25.542Z,8.90
2022-12-08T14:43:28.342Z,9.00
2022-12-08T14:46:30.146Z,8.80
2022-12-08T14:49:38.866Z,9.10
2022-12-08T14:52:43.465Z,8.27
2022-12-08T14:55:46.503Z,8.43
2022-12-08T14:58:49.623Z,8.55
2022-12-08T15:01:52.630Z,9.23
2022-12-08T15:05:14.839Z,8.55
2022-12-08T15:08:16.759Z,8.32
2022-12-08T15:11:21.641Z,9.18
2022-12-08T15:14:32.051Z,8.70
2022-12-08T15:17:38.085Z,9.18
2022-12-08T15:20:48.515Z,9.10
2022-12-08T15:23:50.369Z,9.95
2022-12-08T15:26:52.115Z,9.53
2022-12-08T15:29:53.783Z,9.50
2022-12-08T15:32:59.359Z,9.90
2022-12-08T15:36:00.921Z,10.98
2022-12-08T15:39:02.536Z,10.53
2022-12-08T15:42:05.943Z,11.27
2022-12-08T15:45:09.059Z,11.68
2022-12-08T15:48:21.550Z,11.40
2022-12-08T15:51:23.156Z,11.40
2022-12-08T15:54:24.758Z,11.05
2022-12-08T15:58:04.537Z,10.93
2022-12-08T16:00:52.933Z,11.57
2022-12-08T16:07:25.811Z,9.73
2022-12-08T16:10:35.664Z,9.40
2022-12-08T16:14:00.118Z,10.68
2022-12-08T16:17:16.336Z,10.97
2022-12-08T16:20:28.198Z,10.93
2022-12-08T16:23:44.139Z,10.50
2022-12-08T16:27:58.656Z,10.48
2022-12-08T16:30:14.001Z,10.80
2022-12-08T16:33:15.623Z,12.88
2022-12-08T16:36:17.294Z,10.90
2022-12-08T16:39:18.999Z,11.30
2022-12-08T16:42:43.693Z,12.60
2022-12-08T16:45:45.454Z,12.30
2022-12-08T16:48:47.129Z,11.77
2022-12-08T16:51:48.787Z,11.23
2022-12-08T16:54:50.476Z,12.50
2022-12-08T16:57:52.193Z,11.95
2022-12-08T17:00:53.823Z,11.73
2022-12-08T17:04:29.254Z,12.50
2022-12-08T17:07:17.104Z,12.43
2022-12-08T17:10:22.963Z,13.13
2022-12-08T17:13:24.564Z,13.70
2022-12-08T17:16:27.085Z,14.18
2022-12-08T17:19:31.517Z,15.07
2022-12-08T17:22:33.530Z,13.27
2022-12-08T17:25:35.182Z,15.02
2022-12-08T17:28:59.382Z,14.00
2022-12-08T17:31:58.756Z,14.27
2022-12-08T17:35:03.884Z,14.30
2022-12-08T17:38:05.645Z,14.35
2022-12-08T17:41:08.081Z,13.43
2022-12-08T17:44:13.534Z,12.77
2022-12-08T17:47:15.182Z,12.80
2022-12-08T17:50:20.311Z,14.10
2022-12-08T17:53:21.985Z,12.93
2022-12-08T17:56:23.625Z,12.75
2022-12-08T17:59:26.117Z,13.65
2022-12-08T18:02:28.946Z,13.90
2022-12-08T18:05:31.089Z,12.97
2022-12-08T18:08:32.774Z,13.75
2022-12-08T18:11:34.841Z,14.77
2022-12-08T18:14:36.430Z,14.75
2022-12-08T18:17:38.037Z,15.43
2022-12-08T18:20:43.955Z,15.30
2022-12-08T18:23:45.758Z,14.98
2022-12-08T18:26:47.391Z,15.68
2022-12-08T18:29:48.965Z,15.97
2022-12-08T18:32:55.762Z,16.10
2022-12-08T18:36:01.581Z,16.50
2022-12-08T18:39:07.327Z,16.65
2022-12-08T18:42:24.147Z,15.83
2022-12-08T18:45:25.729Z,16.23
2022-12-08T18:48:27.364Z,15.85
2022-12-08T18:51:32.775Z,16.70
2022-12-08T18:54:58.123Z,16.27
2022-12-08T18:57:55.944Z,14.93
2022-12-08T19:00:57.623Z,15.43
2022-12-08T19:07:21.828Z,16.35
2022-12-08T19:10:23.468Z,15.90
2022-12-08T19:13:25.075Z,16.42
2022-12-08T19:16:26.714Z,17.63
2022-12-08T19:19:28.461Z,15.90
2022-12-08T19:22:30.122Z,15.65
2022-12-08T19:25:31.785Z,15.27
2022-12-08T19:28:33.612Z,14.50
2022-12-08T19:31:35.352Z,14.88
2022-12-08T19:34:37.034Z,15.75
2022-12-08T19:37:42.887Z,14.37
2022-12-08T19:41:03.062Z,14.75
2022-12-08T19:44:04.680Z,14.70
2022-12-08T19:47:06.469Z,14.65
2022-12-08T19:50:27.798Z,14.03
2022-12-08T19:53:29.466Z,13.88
2022-12-08T19:56:31.106Z,13.55
2022-12-08T19:59:32.726Z,14.35
2022-12-08T20:02:34.401Z,13.53
2022-12-08T20:05:36.234Z,13.93
2022-12-08T20:08:50.553Z,13.68
2022-12-08T20:11:54.738Z,14.70
2022-12-08T20:14:56.396Z,13.67
2022-12-08T20:17:58.020Z,14.48
2022-12-08T20:20:59.610Z,13.68
2022-12-08T20:24:04.713Z,13.35
2022-12-08T20:27:06.363Z,14.03
2022-12-08T20:30:13.320Z,13.55
2022-12-08T20:33:18.486Z,14.23
2022-12-08T20:36:20.758Z,14.43
2022-12-08T20:39:26.810Z,14.47
2022-12-08T20:42:28.475Z,14.07
2022-12-08T20:45:30.154Z,13.48
2022-12-08T20:48:31.870Z,13.90
2022-12-08T20:51:33.608Z,15.77
2022-12-08T20:54:35.443Z,14.32
2022-12-08T20:57:37.120Z,14.32
2022-12-08T21:00:38.746Z,14.77
2022-12-08T21:03:40.489Z,14.18
2022-12-08T21:06:42.244Z,14.88
2022-12-08T21:09:44.152Z,14.57
2022-12-08T21:12:45.812Z,14.60
2022-12-08T21:15:47.704Z,15.65
2022-12-08T21:18:49.480Z,15.27
2022-12-08T21:21:51.247Z,15.43
2022-12-08T21:24:52.955Z,14.53
2022-12-08T21:27:54.664Z,15.40
2022-12-08T21:30:56.458Z,14.93
2022-12-08T21:33:59.147Z,16.08
2022-12-08T21:37:01.314Z,14.73
2022-12-08T21:40:03.175Z,14.40
2022-12-08T21:43:05.125Z,15.50
2022-12-08T21:46:06.721Z,15.07
2022-12-08T21:49:08.350Z,14.63
2022-12-08T21:52:10.414Z,14.65
2022-12-08T21:55:12.594Z,15.05
2022-12-08T21:58:14.723Z,14.67
2022-12-08T22:01:16.536Z,15.57
2022-12-08T22:04:18.986Z,14.77
2022-12-08T22:07:21.001Z,15.82
2022-12-08T22:10:23.470Z,14.50
2022-12-08T22:13:25.236Z,15.55
2022-12-08T22:16:26.984Z,15.40
2022-12-08T22:19:30.663Z,14.90
2022-12-08T22:22:34.022Z,14.13
2022-12-08T22:25:36.873Z,14.82
2022-12-08T22:28:39.903Z,15.60
2022-12-08T22:31:41.715Z,15.30
2022-12-08T22:34:43.737Z,15.10
2022-12-08T22:37:48.479Z,15.50
2022-12-08T22:40:50.415Z,15.43
2022-12-08T22:43:52.321Z,16.13
2022-12-08T22:46:54.125Z,15.07
2022-12-08T22:49:55.890Z,15.05
2022-12-08T22:52:57.494Z,15.25
2022-12-08T22:56:02.701Z,15.85
2022-12-08T22:59:04.585Z,16.50
2022-12-08T23:02:06.917Z,15.68
2022-12-08T23:05:09.055Z,15.93
2022-12-08T23:08:13.364Z,16.75
2022-12-08T23:11:18.540Z,16.35
2022-12-08T23:14:20.260Z,15.93
2022-12-08T23:17:22.101Z,16.10
2022-12-08T23:20:23.772Z,15.55
2022-12-08T23:23:25.386Z,16.55
2022-12-08T23:26:28.456Z,16.27
2022-12-08T23:29:30.157Z,16.13
2022-12-08T23:32:31.829Z,17.40
2022-12-08T23:35:33.652Z,16.67
2022-12-08T23:38:35.343Z,17.67
2022-12-08T23:41:41.407Z,17.35
2022-12-08T23:44:43.040Z,17.33
2022-12-08T23:47:44.667Z,16.80
2022-12-08T23:50:46.265Z,17.17
2022-12-08T23:53:47.872Z,16.88
2022-12-08T23:56:52.632Z,17.70
2022-12-08T23:59:54.458Z,17.37
